Terminal Aerodrome Forecast
Issued by NWS

Home | Current Version | Previous Version | Text Only | Print | Product List | Glossary On
Versions: 1 2 3 4 5 6 7 8 9 10 11 12 13 14
000
FTUS46 KSEW 192300
TAFBFI
TAF
KBFI 192331Z 2000/2024 17007KT P6SM SCT028 BKN060
     FM200100 15007KT P6SM SCT050 OVC100
     FM200300 15006KT P6SM OVC050
     FM200700 15006KT P6SM -RA SCT030 OVC050
     FM201600 15007KT P6SM -RA OVC030
     FM201900 16011G20KT 5SM -RA BR OVC030=

USA.gov is the U.S. government's official web portal to all federal, state and local government web resources and services.